createdAt,value
2022-10-20T00:09:15.627Z,93.51
2022-10-20T00:19:19.059Z,93.26
2022-10-20T00:29:22.651Z,93.97
2022-10-20T00:39:26.565Z,93.95
2022-10-20T00:49:30.632Z,93.96
2022-10-20T00:59:38.562Z,93.33
2022-10-20T01:09:44.144Z,93.36
2022-10-20T01:20:23.409Z,92.92
2022-10-20T01:30:27.110Z,92.66
2022-10-20T01:40:35.433Z,93.68
2022-10-20T01:50:43.546Z,93.88
2022-10-20T02:00:49.766Z,92.91
2022-10-20T02:10:58.863Z,93.41
2022-10-20T02:21:04.226Z,94.05
2022-10-20T02:31:08.418Z,92.98
2022-10-20T02:41:11.777Z,92.90
2022-10-20T02:51:17.670Z,93.14
2022-10-20T03:01:22.723Z,93.84
2022-10-20T03:11:25.984Z,92.53
2022-10-20T03:21:29.379Z,93.54
2022-10-20T03:31:32.832Z,94.67
2022-10-20T03:41:36.088Z,94.80
2022-10-20T03:51:39.474Z,94.15
2022-10-20T04:01:46.706Z,94.78
2022-10-20T04:11:50.084Z,95.12
2022-10-20T04:21:56.046Z,95.46
2022-10-20T04:31:59.608Z,95.32
2022-10-20T04:42:09.177Z,95.50
2022-10-20T04:52:12.583Z,96.08
2022-10-20T05:02:20.412Z,95.14
2022-10-20T05:12:23.845Z,94.89
2022-10-20T05:22:31.433Z,95.16
2022-10-20T05:32:38.843Z,96.10
2022-10-20T05:42:46.593Z,96.76
2022-10-20T05:52:50.946Z,98.09
2022-10-20T06:02:54.841Z,100.00
2022-10-20T06:12:58.204Z,100.00
2022-10-20T06:23:03.516Z,100.00
2022-10-20T06:33:06.836Z,100.00
2022-10-20T06:43:14.710Z,100.00
2022-10-20T06:53:20.491Z,100.00
2022-10-20T07:03:24.631Z,100.00
2022-10-20T07:13:29.211Z,100.00
2022-10-20T07:23:34.341Z,100.00
2022-10-20T07:33:38.998Z,100.00
2022-10-20T07:43:43.862Z,100.00
2022-10-20T07:53:48.613Z,100.00
2022-10-20T08:03:54.939Z,100.00
2022-10-20T08:14:01.854Z,100.00
2022-10-20T08:24:06.014Z,100.00
2022-10-20T08:34:09.371Z,100.00
2022-10-20T08:44:28.645Z,100.00
2022-10-20T08:54:36.259Z,100.00
2022-10-20T09:04:47.947Z,100.00
2022-10-20T09:14:54.533Z,100.00
2022-10-20T09:25:00.431Z,100.00
2022-10-20T09:35:13.247Z,100.00
2022-10-20T09:45:23.350Z,100.00
2022-10-20T09:55:31.259Z,100.00
2022-10-20T10:05:36.825Z,99.58
2022-10-20T10:15:41.144Z,97.91
2022-10-20T10:25:44.771Z,95.06
2022-10-20T10:35:49.322Z,93.54
2022-10-20T10:45:58.802Z,90.12
2022-10-20T10:56:23.759Z,85.62
2022-10-20T11:06:54.285Z,80.26
2022-10-20T11:17:22.600Z,78.85
2022-10-20T11:27:29.855Z,78.25
2022-10-20T11:37:48.660Z,76.95
2022-10-20T11:48:04.881Z,75.00
2022-10-20T11:58:53.481Z,74.18
2022-10-20T12:09:41.233Z,73.68
2022-10-20T12:19:44.917Z,72.63
2022-10-20T12:30:52.355Z,71.50
2022-10-20T12:40:58.625Z,70.17
2022-10-20T12:51:17.269Z,70.10
2022-10-20T13:01:20.851Z,69.66
2022-10-20T13:11:36.221Z,68.49
2022-10-20T13:21:39.884Z,67.48
2022-10-20T13:31:52.913Z,68.32
2022-10-20T13:42:33.175Z,68.51
2022-10-20T13:52:43.122Z,67.76
2022-10-20T14:02:59.519Z,68.63
2022-10-20T14:13:07.736Z,67.81
2022-10-20T14:23:12.049Z,68.79
2022-10-20T14:33:16.473Z,68.67
2022-10-20T14:43:41.279Z,69.52
2022-10-20T14:53:45.451Z,69.82
2022-10-20T15:14:24.253Z,70.73
2022-10-20T15:24:28.844Z,71.58
2022-10-20T15:34:32.305Z,72.59
2022-10-20T15:44:36.523Z,74.38
2022-10-20T15:54:39.868Z,75.43
2022-10-20T16:15:12.573Z,77.54
2022-10-20T16:25:16.134Z,78.34
2022-10-20T16:35:22.613Z,79.46
2022-10-20T16:45:26.255Z,79.79
2022-10-20T16:55:29.716Z,80.33
2022-10-20T17:05:33.156Z,80.85
2022-10-20T17:15:37.161Z,81.55
2022-10-20T17:25:52.344Z,81.89
2022-10-20T17:36:00.839Z,82.45
2022-10-20T17:46:09.785Z,83.65
2022-10-20T17:56:51.155Z,84.22
2022-10-20T18:07:08.229Z,85.07
2022-10-20T18:17:14.003Z,85.74
2022-10-20T18:27:17.907Z,86.45
2022-10-20T18:37:21.707Z,87.27
2022-10-20T18:47:28.428Z,87.83
2022-10-20T18:57:40.708Z,88.22
2022-10-20T19:18:26.736Z,88.55
2022-10-20T19:28:32.430Z,88.80
2022-10-20T19:38:36.759Z,89.53
2022-10-20T19:48:40.198Z,89.59
2022-10-20T19:58:46.619Z,90.17
2022-10-20T20:08:55.202Z,90.41
2022-10-20T20:18:59.007Z,90.44
2022-10-20T20:29:03.827Z,90.78
2022-10-20T20:39:07.787Z,91.22
2022-10-20T20:49:11.453Z,91.90
2022-10-20T20:59:15.235Z,92.01
2022-10-20T21:09:18.760Z,92.43
2022-10-20T21:19:22.223Z,92.40
2022-10-20T21:29:25.947Z,93.23
2022-10-20T21:49:33.972Z,92.81
2022-10-20T21:59:37.242Z,92.55
2022-10-20T22:09:43.425Z,91.97
2022-10-20T22:19:47.299Z,92.72
2022-10-20T22:29:51.430Z,93.29
2022-10-20T22:39:56.452Z,94.41
2022-10-20T22:49:59.693Z,94.83
2022-10-20T23:00:05.809Z,95.30
2022-10-20T23:10:10.447Z,95.43
2022-10-20T23:20:13.786Z,95.23
2022-10-20T23:30:17.105Z,95.25
2022-10-20T23:40:20.405Z,95.54
2022-10-20T23:50:26.315Z,95.68
